Time;durP1;ratioP1;P1;durP2;ratioP2;P2;SDS_P1;SDS_P2;PMS_P1;PMS_P2;Temp;Humidity;BMP_temperature;BMP_pressure;BME280_temperature;BME280_humidity;BME280_pressure;Samples;Min_cycle;Max_cycle;Signal;HPM_P1;HPM_P2
2023/12/28 00:01:38;;;;;;;7.90;4.72;;;;;;;;;;5044887;28;20120;-75
2023/12/28 00:04:04;;;;;;;8.93;4.95;;;;;;;;;;5046163;28;20025;-75
2023/12/28 00:06:30;;;;;;;8.77;4.78;;;;;;;;;;5040196;28;20106;-76
2023/12/28 00:08:57;;;;;;;10.07;5.80;;;;;;;;;;5070551;28;20745;-76
2023/12/28 00:11:25;;;;;;;10.07;5.05;;;;;;;;;;5045486;28;20124;-75
2023/12/28 00:13:52;;;;;;;10.40;5.22;;;;;;;;;;5044563;28;20095;-74
2023/12/28 00:16:19;;;;;;;13.77;5.65;;;;;;;;;;5031092;28;20025;-76
2023/12/28 00:18:45;;;;;;;10.93;5.05;;;;;;;;;;5046341;28;20056;-75
2023/12/28 00:21:11;;;;;;;10.20;5.18;;;;;;;;;;5045055;28;20110;-76
2023/12/28 00:23:37;;;;;;;11.63;5.18;;;;;;;;;;5047732;28;20054;-77
2023/12/28 00:26:03;;;;;;;9.73;5.18;;;;;;;;;;5047269;28;20052;-75
2023/12/28 00:28:29;;;;;;;12.63;5.70;;;;;;;;;;5045696;28;20112;-75
2023/12/28 00:30:55;;;;;;;9.57;5.22;;;;;;;;;;5029069;28;20040;-75
2023/12/28 00:33:24;;;;;;;7.90;5.13;;;;;;;;;;5043774;28;20048;-76
2023/12/28 00:35:50;;;;;;;9.25;5.07;;;;;;;;;;5047317;28;20036;-75
2023/12/28 00:38:17;;;;;;;15.35;5.82;;;;;;;;;;5008940;28;20056;-75
2023/12/28 00:40:43;;;;;;;8.15;4.65;;;;;;;;;;5048578;28;20047;-76
2023/12/28 00:43:09;;;;;;;11.30;5.05;;;;;;;;;;5042553;28;20424;-75
2023/12/28 00:45:35;;;;;;;14.07;5.22;;;;;;;;;;5048663;28;20037;-75
2023/12/28 00:48:01;;;;;;;9.90;4.68;;;;;;;;;;5050579;28;20043;-74
2023/12/28 00:50:31;;;;;;;12.52;5.03;;;;;;;;;;5048510;28;20036;-75
2023/12/28 00:52:57;;;;;;;8.93;5.75;;;;;;;;;;5028963;28;20172;-74
2023/12/28 00:55:24;;;;;;;14.75;5.10;;;;;;;;;;5026326;28;20455;-75
2023/12/28 00:57:50;;;;;;;13.70;5.47;;;;;;;;;;5048319;28;20039;-76
2023/12/28 01:00:16;;;;;;;10.65;4.90;;;;;;;;;;5028645;28;20490;-75
2023/12/28 01:02:43;;;;;;;11.55;4.57;;;;;;;;;;5039604;28;20199;-77
2023/12/28 01:05:09;;;;;;;13.77;4.63;;;;;;;;;;5045882;28;20131;-77
2023/12/28 01:07:35;;;;;;;10.07;4.50;;;;;;;;;;5046398;28;20037;-76
2023/12/28 01:10:01;;;;;;;14.77;5.50;;;;;;;;;;5059076;28;20037;-76
2023/12/28 01:12:27;;;;;;;13.43;4.68;;;;;;;;;;5040134;28;20033;-74
2023/12/28 01:14:53;;;;;;;13.10;5.18;;;;;;;;;;5048962;28;20040;-76
2023/12/28 01:17:20;;;;;;;11.55;4.10;;;;;;;;;;5048559;28;20033;-76
2023/12/28 01:19:46;;;;;;;9.63;4.72;;;;;;;;;;5042704;28;20052;-75
2023/12/28 01:22:12;;;;;;;13.05;4.63;;;;;;;;;;5042897;28;20133;-75
2023/12/28 01:24:38;;;;;;;13.43;4.35;;;;;;;;;;5041057;28;20078;-75
2023/12/28 01:27:04;;;;;;;9.55;3.97;;;;;;;;;;5044432;28;20072;-77
2023/12/28 01:29:30;;;;;;;10.27;4.57;;;;;;;;;;5045021;28;20067;-76
2023/12/28 01:31:57;;;;;;;10.02;4.07;;;;;;;;;;5045139;28;20116;-75
2023/12/28 01:34:23;;;;;;;12.70;5.35;;;;;;;;;;5043884;28;20029;-74
2023/12/28 01:36:50;;;;;;;9.70;4.15;;;;;;;;;;5028694;28;20038;-75
2023/12/28 01:39:18;;;;;;;13.45;4.68;;;;;;;;;;5027163;28;20021;-76
2023/12/28 01:41:46;;;;;;;13.35;4.43;;;;;;;;;;5044189;28;20041;-75
2023/12/28 01:44:12;;;;;;;8.82;4.28;;;;;;;;;;5029121;28;20136;-75
2023/12/28 01:46:38;;;;;;;11.07;4.78;;;;;;;;;;5047451;28;20036;-76
2023/12/28 01:49:05;;;;;;;12.05;4.57;;;;;;;;;;5046775;28;20036;-75
2023/12/28 01:51:32;;;;;;;13.52;5.07;;;;;;;;;;5042269;28;20037;-76
2023/12/28 01:53:58;;;;;;;13.35;5.15;;;;;;;;;;5043264;28;20030;-75
2023/12/28 01:56:25;;;;;;;16.23;5.50;;;;;;;;;;5042133;28;20507;-75
2023/12/28 01:58:52;;;;;;;12.15;4.80;;;;;;;;;;5042186;28;20049;-76
2023/12/28 02:01:18;;;;;;;16.02;5.03;;;;;;;;;;5056362;28;20048;-75
2023/12/28 02:03:45;;;;;;;11.52;4.82;;;;;;;;;;5047205;28;20837;-75
2023/12/28 02:06:12;;;;;;;13.18;5.60;;;;;;;;;;5047426;28;20104;-75
2023/12/28 02:08:38;;;;;;;9.43;4.53;;;;;;;;;;5043205;28;20095;-75
2023/12/28 02:11:04;;;;;;;12.02;4.68;;;;;;;;;;5050198;28;20032;-76
2023/12/28 02:13:30;;;;;;;7.38;4.57;;;;;;;;;;5046742;28;20070;-75
2023/12/28 02:16:06;;;;;;;12.35;4.60;;;;;;;;;;5045684;28;20102;-77
2023/12/28 02:18:37;;;;;;;8.88;4.60;;;;;;;;;;5031104;28;20033;-76
2023/12/28 02:21:03;;;;;;;9.75;4.30;;;;;;;;;;5065824;28;20067;-74
2023/12/28 02:23:29;;;;;;;12.52;3.88;;;;;;;;;;5045337;28;20021;-76
2023/12/28 02:25:55;;;;;;;9.57;3.90;;;;;;;;;;5047668;28;20121;-76
2023/12/28 02:28:21;;;;;;;12.88;3.83;;;;;;;;;;5029318;28;20037;-76
2023/12/28 02:30:48;;;;;;;11.57;4.20;;;;;;;;;;5048069;28;20032;-76
2023/12/28 02:33:27;;;;;;;15.30;3.97;;;;;;;;;;5045012;28;20051;-75
2023/12/28 02:35:58;;;;;;;9.18;3.97;;;;;;;;;;5047552;28;20032;-77
2023/12/28 02:38:25;;;;;;;9.65;3.80;;;;;;;;;;5047155;28;20187;-77
2023/12/28 02:40:51;;;;;;;11.05;3.67;;;;;;;;;;5047144;28;20025;-76
2023/12/28 02:43:17;;;;;;;14.57;3.70;;;;;;;;;;5045716;28;20044;-76
2023/12/28 02:45:43;;;;;;;14.27;3.95;;;;;;;;;;5050090;28;20123;-75
2023/12/28 02:48:10;;;;;;;13.07;4.32;;;;;;;;;;5046710;28;20197;-75
2023/12/28 02:50:36;;;;;;;9.00;4.10;;;;;;;;;;5046689;28;20122;-77
2023/12/28 02:53:02;;;;;;;11.73;4.35;;;;;;;;;;5078568;28;20066;-75
2023/12/28 02:55:29;;;;;;;11.40;3.92;;;;;;;;;;5044817;28;20188;-76
2023/12/28 02:57:56;;;;;;;12.80;4.65;;;;;;;;;;5050432;28;20035;-77
2023/12/28 03:00:22;;;;;;;10.20;3.97;;;;;;;;;;5047676;28;20032;-74
2023/12/28 03:02:48;;;;;;;23.25;4.72;;;;;;;;;;5042439;28;20033;-76
2023/12/28 03:05:16;;;;;;;10.48;3.55;;;;;;;;;;5048703;28;20049;-76
2023/12/28 03:07:43;;;;;;;8.98;3.90;;;;;;;;;;5044647;28;20029;-75
2023/12/28 03:10:11;;;;;;;10.98;3.78;;;;;;;;;;5047871;28;20026;-76
2023/12/28 03:12:38;;;;;;;6.10;3.15;;;;;;;;;;5046040;28;20047;-74
2023/12/28 03:15:05;;;;;;;17.73;3.67;;;;;;;;;;5049448;28;20394;-75
2023/12/28 03:17:32;;;;;;;12.13;3.78;;;;;;;;;;5045582;28;20237;-76
2023/12/28 03:20:01;;;;;;;12.30;3.55;;;;;;;;;;5048120;28;20102;-77
2023/12/28 03:22:27;;;;;;;12.15;3.95;;;;;;;;;;5045419;28;20021;-77
2023/12/28 03:24:53;;;;;;;10.00;3.50;;;;;;;;;;5048318;28;20025;-75
2023/12/28 03:27:21;;;;;;;10.73;3.58;;;;;;;;;;5045033;28;20042;-75
2023/12/28 03:29:47;;;;;;;11.95;4.15;;;;;;;;;;5048026;28;20129;-75
2023/12/28 03:32:15;;;;;;;12.40;3.50;;;;;;;;;;5043496;28;20041;-75
2023/12/28 03:34:41;;;;;;;16.15;4.35;;;;;;;;;;5048889;28;20095;-83
2023/12/28 03:37:07;;;;;;;13.18;3.53;;;;;;;;;;5080744;28;20029;-75
2023/12/28 03:39:34;;;;;;;13.18;4.07;;;;;;;;;;5047070;28;20186;-77
2023/12/28 03:42:00;;;;;;;9.55;3.85;;;;;;;;;;5044761;28;20785;-76
2023/12/28 03:44:26;;;;;;;13.70;4.22;;;;;;;;;;5048867;28;20033;-76
2023/12/28 03:46:53;;;;;;;8.75;3.60;;;;;;;;;;5046472;28;20140;-76
2023/12/28 03:49:19;;;;;;;14.70;3.60;;;;;;;;;;5030796;28;20059;-75
2023/12/28 03:51:46;;;;;;;16.00;4.47;;;;;;;;;;5044204;28;20037;-77
2023/12/28 03:54:13;;;;;;;15.13;3.72;;;;;;;;;;5044581;28;20293;-77
2023/12/28 03:56:43;;;;;;;8.45;3.10;;;;;;;;;;5045079;28;20029;-76
2023/12/28 03:59:09;;;;;;;22.37;4.47;;;;;;;;;;5046607;28;20128;-75
2023/12/28 04:01:35;;;;;;;11.63;4.45;;;;;;;;;;5041641;28;20029;-76
2023/12/28 04:04:02;;;;;;;13.57;3.67;;;;;;;;;;5045731;28;20025;-76
2023/12/28 04:06:28;;;;;;;16.90;4.00;;;;;;;;;;5048727;28;20025;-77
2023/12/28 04:08:54;;;;;;;10.75;3.58;;;;;;;;;;5049058;28;20070;-77
2023/12/28 04:11:21;;;;;;;12.65;3.63;;;;;;;;;;5045604;28;20064;-75
2023/12/28 04:13:47;;;;;;;13.20;3.25;;;;;;;;;;5049765;28;20116;-75
2023/12/28 04:16:14;;;;;;;14.45;4.45;;;;;;;;;;5046879;28;20041;-76
2023/12/28 04:18:40;;;;;;;9.48;3.53;;;;;;;;;;5045938;28;20029;-77
2023/12/28 04:21:10;;;;;;;12.35;3.50;;;;;;;;;;5044017;28;21311;-77
2023/12/28 04:23:37;;;;;;;18.38;3.45;;;;;;;;;;5046896;28;20512;-78
2023/12/28 04:26:03;;;;;;;15.18;3.17;;;;;;;;;;5046305;28;20068;-75
2023/12/28 04:28:29;;;;;;;12.63;3.20;;;;;;;;;;5044232;28;20061;-77
2023/12/28 04:30:56;;;;;;;9.10;3.60;;;;;;;;;;5039560;28;20041;-76
2023/12/28 04:33:22;;;;;;;13.65;3.15;;;;;;;;;;5045351;28;20029;-76
2023/12/28 04:35:49;;;;;;;15.18;3.47;;;;;;;;;;5047075;28;20363;-77
2023/12/28 04:38:15;;;;;;;15.75;3.38;;;;;;;;;;5046973;28;20048;-76
2023/12/28 04:40:41;;;;;;;10.55;3.10;;;;;;;;;;5028927;28;20056;-76
2023/12/28 04:43:08;;;;;;;20.95;3.63;;;;;;;;;;5042234;28;20479;-75
2023/12/28 04:45:34;;;;;;;15.68;3.67;;;;;;;;;;5031993;28;20052;-78
2023/12/28 04:48:00;;;;;;;11.75;2.83;;;;;;;;;;5048251;28;20069;-76
2023/12/28 04:50:29;;;;;;;17.25;3.25;;;;;;;;;;5045259;28;20041;-78
2023/12/28 04:52:55;;;;;;;17.77;3.35;;;;;;;;;;5046027;28;20087;-76
2023/12/28 04:55:24;;;;;;;11.82;3.22;;;;;;;;;;5043822;28;20032;-76
2023/12/28 04:57:50;;;;;;;13.13;3.03;;;;;;;;;;5078103;28;20032;-76
2023/12/28 05:00:18;;;;;;;16.00;3.40;;;;;;;;;;5044948;28;20032;-77
2023/12/28 05:02:46;;;;;;;20.17;4.55;;;;;;;;;;5041400;28;20086;-75
2023/12/28 05:05:12;;;;;;;15.52;3.17;;;;;;;;;;5029814;28;20033;-77
2023/12/28 05:07:39;;;;;;;20.50;3.35;;;;;;;;;;5028459;28;20033;-77
2023/12/28 05:10:05;;;;;;;15.80;3.33;;;;;;;;;;5045313;28;20045;-77
2023/12/28 05:12:31;;;;;;;12.65;2.55;;;;;;;;;;5024657;28;20040;-76
2023/12/28 05:14:59;;;;;;;14.55;2.92;;;;;;;;;;5046219;28;20048;-76
2023/12/28 05:17:25;;;;;;;13.60;3.03;;;;;;;;;;5042206;28;20442;-76
2023/12/28 05:19:51;;;;;;;17.02;3.50;;;;;;;;;;5043009;28;20075;-77
2023/12/28 05:22:18;;;;;;;18.73;3.28;;;;;;;;;;5047264;28;20043;-76
2023/12/28 05:24:44;;;;;;;18.00;3.78;;;;;;;;;;5047085;28;20133;-76
2023/12/28 05:27:10;;;;;;;16.38;3.38;;;;;;;;;;5040679;28;20049;-75
2023/12/28 05:29:36;;;;;;;15.95;3.92;;;;;;;;;;5045086;28;20032;-77
2023/12/28 05:32:02;;;;;;;13.90;3.28;;;;;;;;;;5046389;28;20040;-76
2023/12/28 05:34:28;;;;;;;17.73;3.13;;;;;;;;;;5045534;28;20108;-75
2023/12/28 05:36:55;;;;;;;18.60;3.00;;;;;;;;;;5045248;28;20037;-76
2023/12/28 05:39:21;;;;;;;22.80;3.50;;;;;;;;;;5046778;28;20029;-76
2023/12/28 05:41:47;;;;;;;16.35;2.83;;;;;;;;;;5046490;28;20115;-76
2023/12/28 05:44:14;;;;;;;18.25;3.88;;;;;;;;;;5032233;28;20037;-76
2023/12/28 05:46:40;;;;;;;22.60;3.50;;;;;;;;;;5051479;28;20079;-76
2023/12/28 05:49:06;;;;;;;20.88;3.83;;;;;;;;;;5046328;28;20064;-75
2023/12/28 05:51:42;;;;;;;22.67;4.53;;;;;;;;;;5044964;28;20108;-76
2023/12/28 05:54:09;;;;;;;19.35;3.58;;;;;;;;;;5051103;28;20143;-75
2023/12/28 05:56:35;;;;;;;15.90;3.13;;;;;;;;;;5046849;28;20045;-76
2023/12/28 05:59:01;;;;;;;20.75;3.25;;;;;;;;;;5046800;28;20024;-76
2023/12/28 06:01:28;;;;;;;20.30;3.42;;;;;;;;;;5048603;28;20036;-77
2023/12/28 06:03:54;;;;;;;19.27;3.55;;;;;;;;;;5045595;28;20331;-77
2023/12/28 06:06:20;;;;;;;25.17;4.70;;;;;;;;;;5050463;28;20098;-76
2023/12/28 06:08:47;;;;;;;24.13;4.45;;;;;;;;;;5050874;28;20040;-76
2023/12/28 06:11:13;;;;;;;23.65;3.72;;;;;;;;;;5049160;28;20029;-75
2023/12/28 06:13:39;;;;;;;28.20;3.75;;;;;;;;;;5050124;28;20165;-75
2023/12/28 06:16:05;;;;;;;21.63;3.85;;;;;;;;;;5048064;28;20124;-75
2023/12/28 06:18:32;;;;;;;20.20;4.10;;;;;;;;;;5047828;28;20028;-76
2023/12/28 06:20:58;;;;;;;22.10;4.00;;;;;;;;;;5045873;28;20033;-76
2023/12/28 06:23:24;;;;;;;23.50;3.83;;;;;;;;;;5046474;28;20024;-76
2023/12/28 06:25:50;;;;;;;27.08;4.28;;;;;;;;;;5048164;28;20049;-76
2023/12/28 06:28:16;;;;;;;18.40;3.55;;;;;;;;;;5044297;28;21244;-77
2023/12/28 06:30:43;;;;;;;29.95;5.15;;;;;;;;;;5048606;28;20442;-75
2023/12/28 06:33:09;;;;;;;29.30;4.03;;;;;;;;;;5049823;28;20434;-75
2023/12/28 06:35:35;;;;;;;20.65;4.45;;;;;;;;;;5049769;28;20041;-76
2023/12/28 06:38:02;;;;;;;23.67;4.28;;;;;;;;;;5047997;28;20052;-76
2023/12/28 06:40:28;;;;;;;27.63;6.03;;;;;;;;;;5031932;28;20047;-76
2023/12/28 06:42:54;;;;;;;26.45;4.25;;;;;;;;;;5046372;28;20026;-77
2023/12/28 06:45:26;;;;;;;24.92;4.35;;;;;;;;;;5049226;28;20284;-75
2023/12/28 06:47:52;;;;;;;20.70;3.65;;;;;;;;;;5042641;28;20742;-77
2023/12/28 06:50:18;;;;;;;21.65;3.88;;;;;;;;;;5062531;28;20128;-76
2023/12/28 06:52:44;;;;;;;26.92;4.13;;;;;;;;;;5047035;28;20146;-77
2023/12/28 06:55:11;;;;;;;27.05;4.55;;;;;;;;;;5027308;28;20040;-77
2023/12/28 06:57:37;;;;;;;28.27;5.00;;;;;;;;;;5035291;28;20056;-76
2023/12/28 07:00:04;;;;;;;26.80;4.28;;;;;;;;;;5035612;28;20078;-75
2023/12/28 07:02:30;;;;;;;23.92;3.88;;;;;;;;;;5046986;28;20025;-75
2023/12/28 07:04:56;;;;;;;30.60;4.15;;;;;;;;;;5050164;28;20033;-77
2023/12/28 07:07:22;;;;;;;19.02;3.97;;;;;;;;;;5043404;28;20037;-75
2023/12/28 07:09:49;;;;;;;22.25;4.03;;;;;;;;;;5046792;28;20048;-77
2023/12/28 07:12:15;;;;;;;26.75;4.97;;;;;;;;;;5029189;28;20032;-76
2023/12/28 07:14:41;;;;;;;23.02;4.30;;;;;;;;;;5052585;28;20464;-75
2023/12/28 07:17:07;;;;;;;25.95;3.72;;;;;;;;;;5045982;28;20055;-75
2023/12/28 07:19:34;;;;;;;26.60;5.03;;;;;;;;;;5047068;28;20029;-76
2023/12/28 07:22:00;;;;;;;26.60;4.50;;;;;;;;;;5043150;28;20025;-76
2023/12/28 07:24:26;;;;;;;26.25;3.97;;;;;;;;;;5044092;28;20040;-77
2023/12/28 07:26:53;;;;;;;30.67;5.15;;;;;;;;;;5043893;28;20605;-77
2023/12/28 07:29:19;;;;;;;34.42;4.63;;;;;;;;;;5036449;28;20124;-76
2023/12/28 07:31:45;;;;;;;27.80;4.43;;;;;;;;;;5047194;28;20103;-77
2023/12/28 07:34:11;;;;;;;20.08;3.92;;;;;;;;;;5057844;28;20041;-75
2023/12/28 07:36:40;;;;;;;24.55;4.55;;;;;;;;;;5047297;28;20041;-76
2023/12/28 07:39:07;;;;;;;24.67;5.30;;;;;;;;;;5040261;28;20025;-76
2023/12/28 07:41:33;;;;;;;24.38;3.80;;;;;;;;;;5033186;28;20026;-77
2023/12/28 07:43:59;;;;;;;21.83;4.05;;;;;;;;;;5036853;28;20044;-76
2023/12/28 07:46:25;;;;;;;23.02;4.45;;;;;;;;;;5076325;28;20033;-75
2023/12/28 07:48:51;;;;;;;16.92;3.53;;;;;;;;;;5041798;28;20070;-76
2023/12/28 07:51:18;;;;;;;25.98;4.07;;;;;;;;;;5045303;28;20102;-76
2023/12/28 07:53:44;;;;;;;23.73;4.28;;;;;;;;;;5046988;28;20039;-76
2023/12/28 07:56:10;;;;;;;24.83;4.05;;;;;;;;;;5047102;28;20041;-77
2023/12/28 07:58:37;;;;;;;25.80;3.97;;;;;;;;;;5040032;28;20029;-77
2023/12/28 08:01:03;;;;;;;24.25;3.70;;;;;;;;;;5041019;28;20256;-79
2023/12/28 08:03:30;;;;;;;22.25;4.03;;;;;;;;;;5048563;28;20029;-76
2023/12/28 08:05:56;;;;;;;20.77;3.85;;;;;;;;;;5041382;28;20652;-77
2023/12/28 08:08:22;;;;;;;26.58;4.95;;;;;;;;;;5038952;28;20029;-77
2023/12/28 08:10:48;;;;;;;27.25;3.80;;;;;;;;;;5071772;28;20116;-75
2023/12/28 08:13:15;;;;;;;23.10;4.40;;;;;;;;;;5048548;28;20037;-76
2023/12/28 08:15:42;;;;;;;25.73;4.80;;;;;;;;;;5053455;28;20029;-76
2023/12/28 08:18:08;;;;;;;24.15;3.90;;;;;;;;;;5044655;28;20030;-77
2023/12/28 08:20:35;;;;;;;18.98;3.88;;;;;;;;;;5053304;28;20096;-76
2023/12/28 08:23:01;;;;;;;24.73;3.53;;;;;;;;;;5036688;28;20049;-76
2023/12/28 08:25:27;;;;;;;32.50;4.30;;;;;;;;;;5047616;28;20056;-76
2023/12/28 08:27:53;;;;;;;20.75;3.58;;;;;;;;;;5047649;28;20044;-76
2023/12/28 08:30:19;;;;;;;25.58;4.10;;;;;;;;;;5031913;28;20033;-76
2023/12/28 08:32:45;;;;;;;28.83;5.13;;;;;;;;;;5031418;28;20544;-76
2023/12/28 08:35:11;;;;;;;23.05;3.83;;;;;;;;;;5042167;28;20041;-76
2023/12/28 08:37:38;;;;;;;25.13;4.32;;;;;;;;;;5048637;28;20037;-76
2023/12/28 08:40:04;;;;;;;30.10;4.38;;;;;;;;;;5046842;28;20070;-75
2023/12/28 08:42:30;;;;;;;22.63;3.72;;;;;;;;;;5046365;28;20045;-75
2023/12/28 08:44:56;;;;;;;22.92;3.80;;;;;;;;;;5048357;28;20037;-75
2023/12/28 08:47:23;;;;;;;21.05;3.97;;;;;;;;;;5045353;28;20457;-76
2023/12/28 08:49:49;;;;;;;24.42;3.63;;;;;;;;;;5045831;28;20037;-77
2023/12/28 08:52:15;;;;;;;23.85;4.43;;;;;;;;;;5047412;28;20040;-76
2023/12/28 08:54:41;;;;;;;22.95;4.03;;;;;;;;;;5048397;28;20033;-78
2023/12/28 08:57:08;;;;;;;25.40;3.90;;;;;;;;;;5047294;28;20104;-75
2023/12/28 08:59:37;;;;;;;23.80;3.97;;;;;;;;;;5065787;28;20025;-75
2023/12/28 09:02:03;;;;;;;22.38;3.83;;;;;;;;;;5043491;28;20053;-74
2023/12/28 09:04:29;;;;;;;23.13;3.97;;;;;;;;;;5042120;28;20045;-77
2023/12/28 09:06:55;;;;;;;27.52;5.32;;;;;;;;;;5035362;28;20466;-76
2023/12/28 09:09:22;;;;;;;26.65;4.97;;;;;;;;;;5031368;28;20041;-76
2023/12/28 09:11:48;;;;;;;25.00;4.18;;;;;;;;;;5035132;28;20037;-75
2023/12/28 09:14:14;;;;;;;21.80;4.45;;;;;;;;;;5035960;28;20048;-76
2023/12/28 09:16:42;;;;;;;23.30;3.95;;;;;;;;;;5049092;28;20076;-76
2023/12/28 09:19:08;;;;;;;17.20;3.63;;;;;;;;;;5033382;28;20445;-76
2023/12/28 09:21:35;;;;;;;26.60;3.95;;;;;;;;;;5051281;28;20033;-76
2023/12/28 09:24:01;;;;;;;23.77;4.38;;;;;;;;;;5052298;28;20037;-77
2023/12/28 09:26:27;;;;;;;23.80;4.85;;;;;;;;;;5052369;28;20076;-76
2023/12/28 09:28:54;;;;;;;29.08;4.85;;;;;;;;;;5034410;28;20032;-74
2023/12/28 09:31:21;;;;;;;25.20;4.57;;;;;;;;;;5032701;28;20056;-75
2023/12/28 09:33:47;;;;;;;24.23;3.67;;;;;;;;;;5073043;28;20025;-76
2023/12/28 09:36:13;;;;;;;24.38;4.78;;;;;;;;;;5041922;28;20037;-77
2023/12/28 09:38:39;;;;;;;28.77;5.22;;;;;;;;;;5032044;28;20368;-75
2023/12/28 09:41:16;;;;;;;31.27;4.90;;;;;;;;;;5032624;28;20029;-77
2023/12/28 09:43:51;;;;;;;22.35;3.97;;;;;;;;;;5032760;28;20022;-76
2023/12/28 09:46:17;;;;;;;30.50;4.07;;;;;;;;;;5050303;28;20033;-75
2023/12/28 09:48:43;;;;;;;26.23;4.38;;;;;;;;;;5052336;28;20044;-75
2023/12/28 09:51:10;;;;;;;29.50;4.05;;;;;;;;;;5052527;28;20056;-75
2023/12/28 09:53:37;;;;;;;28.50;4.28;;;;;;;;;;5048680;28;20064;-76
2023/12/28 09:56:03;;;;;;;25.10;4.20;;;;;;;;;;5051858;28;20528;-75
2023/12/28 09:58:32;;;;;;;18.83;3.65;;;;;;;;;;5050693;28;20039;-75
2023/12/28 10:01:01;;;;;;;28.83;5.30;;;;;;;;;;5052705;28;20017;-75
2023/12/28 10:03:27;;;;;;;24.60;4.47;;;;;;;;;;5049570;28;20037;-76
2023/12/28 10:05:53;;;;;;;24.13;3.67;;;;;;;;;;5049699;28;20110;-76
2023/12/28 10:08:20;;;;;;;31.80;4.88;;;;;;;;;;5050704;28;20048;-75
2023/12/28 10:10:50;;;;;;;33.78;4.88;;;;;;;;;;5051197;28;20082;-76
2023/12/28 10:13:17;;;;;;;28.35;5.13;;;;;;;;;;5048215;28;20029;-76
2023/12/28 10:15:43;;;;;;;34.85;4.40;;;;;;;;;;5068040;28;20045;-76
2023/12/28 10:18:10;;;;;;;28.55;4.63;;;;;;;;;;5047716;28;20108;-76
2023/12/28 10:20:36;;;;;;;29.33;4.40;;;;;;;;;;5049381;28;20432;-76
2023/12/28 10:23:03;;;;;;;29.02;5.22;;;;;;;;;;5043732;28;20029;-76
2023/12/28 10:25:29;;;;;;;25.55;4.93;;;;;;;;;;5031483;28;20025;-76
2023/12/28 10:27:55;;;;;;;23.13;3.58;;;;;;;;;;5037592;28;20040;-76
2023/12/28 10:30:22;;;;;;;32.42;4.80;;;;;;;;;;5056381;28;20041;-76
2023/12/28 10:32:48;;;;;;;33.80;4.68;;;;;;;;;;5055665;28;20060;-75
2023/12/28 10:35:14;;;;;;;27.35;4.25;;;;;;;;;;5050453;28;20033;-77
2023/12/28 10:37:44;;;;;;;25.58;4.55;;;;;;;;;;5049005;28;20048;-76
2023/12/28 10:40:18;;;;;;;24.50;4.30;;;;;;;;;;5049564;28;20047;-76
2023/12/28 10:42:51;;;;;;;25.48;4.40;;;;;;;;;;5049001;28;20021;-75
2023/12/28 10:45:20;;;;;;;24.73;3.92;;;;;;;;;;5048785;28;20021;-75
2023/12/28 10:47:55;;;;;;;29.08;5.57;;;;;;;;;;5049825;28;20167;-75
2023/12/28 10:50:23;;;;;;;28.45;3.72;;;;;;;;;;5034034;28;20030;-76
2023/12/28 10:52:53;;;;;;;24.33;4.43;;;;;;;;;;5012560;28;20183;-75
2023/12/28 10:55:20;;;;;;;26.98;4.03;;;;;;;;;;5036873;28;20382;-76
2023/12/28 10:58:19;;;;;;;29.85;5.30;;;;;;;;;;5044625;28;20443;-76
2023/12/28 11:00:50;;;;;;;29.08;4.07;;;;;;;;;;5030027;28;20038;-75
2023/12/28 11:03:19;;;;;;;27.98;3.88;;;;;;;;;;5047497;28;20029;-76
2023/12/28 11:05:46;;;;;;;32.70;5.05;;;;;;;;;;5048938;28;20399;-75
2023/12/28 11:08:13;;;;;;;27.13;4.47;;;;;;;;;;5042072;28;20033;-73
2023/12/28 11:10:39;;;;;;;39.67;4.95;;;;;;;;;;5029967;28;20402;-75
2023/12/28 11:13:06;;;;;;;25.90;5.50;;;;;;;;;;5030044;28;20052;-75
2023/12/28 11:15:32;;;;;;;33.35;4.75;;;;;;;;;;5028435;28;20117;-75
2023/12/28 11:17:59;;;;;;;26.00;4.45;;;;;;;;;;5041135;28;20132;-76
2023/12/28 11:20:28;;;;;;;23.92;4.50;;;;;;;;;;5071362;28;20035;-75
2023/12/28 11:22:55;;;;;;;30.35;5.20;;;;;;;;;;5050201;28;20099;-77
2023/12/28 11:25:21;;;;;;;27.55;4.13;;;;;;;;;;5049790;28;20056;-75
2023/12/28 11:27:48;;;;;;;27.50;3.97;;;;;;;;;;5000799;28;1246311;-76
2023/12/28 11:30:15;;;;;;;28.85;5.85;;;;;;;;;;5044983;28;20350;-75
2023/12/28 11:32:45;;;;;;;29.20;5.75;;;;;;;;;;5036035;28;20096;-75
2023/12/28 11:35:14;;;;;;;31.33;4.75;;;;;;;;;;5050013;28;20555;-76
2023/12/28 11:37:46;;;;;;;29.35;4.82;;;;;;;;;;5045038;28;20250;-75
2023/12/28 11:40:16;;;;;;;30.27;5.07;;;;;;;;;;5030446;28;20026;-76
2023/12/28 11:42:55;;;;;;;34.40;5.60;;;;;;;;;;5036511;28;20043;-76
2023/12/28 11:45:23;;;;;;;26.05;4.13;;;;;;;;;;5045774;28;20087;-76
2023/12/28 11:48:02;;;;;;;27.27;5.28;;;;;;;;;;5037242;28;20040;-76
2023/12/28 11:50:28;;;;;;;36.58;5.35;;;;;;;;;;5064556;28;20407;-76
2023/12/28 11:52:54;;;;;;;30.98;4.75;;;;;;;;;;5038039;28;20055;-77
2023/12/28 11:55:23;;;;;;;36.30;5.03;;;;;;;;;;5050167;28;20142;-78
2023/12/28 11:57:49;;;;;;;26.13;3.90;;;;;;;;;;5050251;28;20043;-77
2023/12/28 12:00:17;;;;;;;23.92;4.60;;;;;;;;;;5031823;28;20064;-76
2023/12/28 12:02:46;;;;;;;32.33;4.63;;;;;;;;;;5048504;28;20037;-75
2023/12/28 12:05:12;;;;;;;24.63;3.90;;;;;;;;;;5036100;28;20025;-76
2023/12/28 12:07:39;;;;;;;32.67;4.82;;;;;;;;;;5028400;28;20033;-77
2023/12/28 12:10:06;;;;;;;22.75;3.83;;;;;;;;;;5028024;28;20038;-77
2023/12/28 12:12:32;;;;;;;27.08;4.05;;;;;;;;;;5029745;28;20030;-77
2023/12/28 12:14:58;;;;;;;24.85;4.72;;;;;;;;;;5039769;28;20071;-77
2023/12/28 12:17:25;;;;;;;29.30;4.95;;;;;;;;;;5043687;28;20061;-77
2023/12/28 12:19:55;;;;;;;31.38;4.35;;;;;;;;;;5032481;28;20060;-75
2023/12/28 12:22:21;;;;;;;23.10;4.33;;;;;;;;;;5049535;28;20397;-76
2023/12/28 12:24:49;;;;;;;26.75;5.43;;;;;;;;;;5044599;28;20283;-76
2023/12/28 12:27:17;;;;;;;38.13;5.50;;;;;;;;;;5049071;28;20494;-75
2023/12/28 12:29:44;;;;;;;27.33;5.20;;;;;;;;;;5046872;28;20501;-76
2023/12/28 12:32:10;;;;;;;30.98;5.63;;;;;;;;;;5038870;28;20165;-76
2023/12/28 12:34:36;;;;;;;31.13;4.13;;;;;;;;;;5074681;28;20135;-76
2023/12/28 12:37:02;;;;;;;30.13;5.45;;;;;;;;;;5072710;28;20040;-76
2023/12/28 12:39:29;;;;;;;32.83;4.68;;;;;;;;;;5029481;28;20098;-75
2023/12/28 12:41:56;;;;;;;26.00;4.93;;;;;;;;;;5028514;28;20124;-76
2023/12/28 12:44:23;;;;;;;28.95;5.57;;;;;;;;;;5041392;28;20033;-77
2023/12/28 12:46:49;;;;;;;25.23;3.90;;;;;;;;;;5048507;28;20029;-76
2023/12/28 12:49:16;;;;;;;28.42;4.22;;;;;;;;;;5048501;28;20044;-77
2023/12/28 12:51:42;;;;;;;33.10;5.55;;;;;;;;;;5044762;28;20234;-77
2023/12/28 12:54:09;;;;;;;29.67;4.45;;;;;;;;;;5042437;28;20037;-77
2023/12/28 12:56:37;;;;;;;34.40;5.03;;;;;;;;;;5041592;28;20033;-76
2023/12/28 12:59:03;;;;;;;36.70;4.03;;;;;;;;;;5045757;28;20059;-77
2023/12/28 13:01:30;;;;;;;24.83;3.95;;;;;;;;;;5039681;28;20036;-76
2023/12/28 13:03:56;;;;;;;25.85;5.22;;;;;;;;;;5037800;28;20094;-76
2023/12/28 13:06:23;;;;;;;25.60;4.43;;;;;;;;;;5045150;28;20350;-76
2023/12/28 13:08:49;;;;;;;28.60;5.22;;;;;;;;;;5034913;28;20098;-76
2023/12/28 13:11:15;;;;;;;26.90;4.00;;;;;;;;;;5049726;28;20051;-76
2023/12/28 13:13:43;;;;;;;28.25;5.65;;;;;;;;;;5034134;28;20033;-78
2023/12/28 13:16:09;;;;;;;31.90;3.67;;;;;;;;;;5044725;28;20079;-76
2023/12/28 13:18:36;;;;;;;29.02;3.83;;;;;;;;;;5044735;28;20485;-77
2023/12/28 13:21:02;;;;;;;27.35;4.95;;;;;;;;;;5047703;28;20072;-75
2023/12/28 13:23:28;;;;;;;27.90;3.88;;;;;;;;;;5043663;28;20028;-77
2023/12/28 13:25:55;;;;;;;25.55;4.43;;;;;;;;;;5062221;28;20338;-75
2023/12/28 13:28:21;;;;;;;29.17;4.68;;;;;;;;;;5043980;28;20110;-76
2023/12/28 13:30:47;;;;;;;41.13;4.60;;;;;;;;;;5046007;28;20116;-77
2023/12/28 13:33:13;;;;;;;28.13;4.80;;;;;;;;;;5048010;28;20039;-76
2023/12/28 13:35:39;;;;;;;28.80;5.03;;;;;;;;;;5056767;28;20048;-75
2023/12/28 13:38:05;;;;;;;25.92;3.83;;;;;;;;;;5040537;28;20043;-75
2023/12/28 13:40:31;;;;;;;25.08;4.15;;;;;;;;;;5040649;28;20044;-78
2023/12/28 13:42:57;;;;;;;34.20;4.28;;;;;;;;;;5044331;28;20132;-79
2023/12/28 13:45:24;;;;;;;28.05;5.18;;;;;;;;;;5024947;28;20033;-76
2023/12/28 13:47:50;;;;;;;39.42;4.53;;;;;;;;;;5043327;28;20033;-77
2023/12/28 13:50:16;;;;;;;35.03;4.97;;;;;;;;;;5048518;28;20025;-78
2023/12/28 13:52:42;;;;;;;35.72;4.75;;;;;;;;;;5046606;28;20099;-78
2023/12/28 13:55:09;;;;;;;37.60;4.90;;;;;;;;;;5041889;28;20029;-77
2023/12/28 13:57:35;;;;;;;41.88;4.93;;;;;;;;;;5071550;28;20065;-77
2023/12/28 14:00:02;;;;;;;28.13;4.40;;;;;;;;;;5048523;28;20082;-78
2023/12/28 14:02:39;;;;;;;37.58;4.68;;;;;;;;;;5042919;28;20091;-76
2023/12/28 14:05:06;;;;;;;35.17;4.53;;;;;;;;;;5042514;28;20524;-77
2023/12/28 14:07:32;;;;;;;43.55;5.07;;;;;;;;;;5060427;28;20089;-77
2023/12/28 14:09:59;;;;;;;30.60;4.28;;;;;;;;;;5046078;28;20033;-77
2023/12/28 14:12:25;;;;;;;37.40;5.85;;;;;;;;;;5059440;28;20025;-76
2023/12/28 14:14:51;;;;;;;33.15;4.65;;;;;;;;;;5030724;28;20029;-78
2023/12/28 14:17:19;;;;;;;47.03;6.28;;;;;;;;;;5042871;28;20032;-76
2023/12/28 14:19:46;;;;;;;27.40;4.68;;;;;;;;;;5046750;28;20037;-77
2023/12/28 14:22:13;;;;;;;29.40;4.80;;;;;;;;;;5043989;28;20033;-76
2023/12/28 14:24:39;;;;;;;29.20;4.05;;;;;;;;;;5049496;28;20025;-77
2023/12/28 14:27:06;;;;;;;34.75;4.70;;;;;;;;;;5047697;28;20057;-78
2023/12/28 14:29:32;;;;;;;23.80;3.97;;;;;;;;;;5043795;28;20044;-77